sensor_id;sensor_type;location;lat;lon;timestamp;P1;durP1;ratioP1;P2;durP2;ratioP2
22916;SDS011;11624;53.250;7.456;2023-10-19T00:00:56;21.73;;;9.73;;
22916;SDS011;11624;53.250;7.456;2023-10-19T00:03:25;21.13;;;9.23;;
22916;SDS011;11624;53.250;7.456;2023-10-19T00:05:55;20.10;;;9.07;;
22916;SDS011;11624;53.250;7.456;2023-10-19T00:08:24;19.58;;;9.15;;
22916;SDS011;11624;53.250;7.456;2023-10-19T00:10:52;20.95;;;9.25;;
22916;SDS011;11624;53.250;7.456;2023-10-19T00:13:29;20.27;;;9.02;;
22916;SDS011;11624;53.250;7.456;2023-10-19T00:15:57;20.05;;;10.15;;
22916;SDS011;11624;53.250;7.456;2023-10-19T00:18:27;21.83;;;10.02;;
22916;SDS011;11624;53.250;7.456;2023-10-19T00:20:59;20.38;;;9.70;;
22916;SDS011;11624;53.250;7.456;2023-10-19T00:23:37;20.38;;;10.02;;
22916;SDS011;11624;53.250;7.456;2023-10-19T00:26:06;23.40;;;10.90;;
22916;SDS011;11624;53.250;7.456;2023-10-19T00:28:45;22.08;;;10.85;;
22916;SDS011;11624;53.250;7.456;2023-10-19T00:31:13;22.42;;;10.63;;
22916;SDS011;11624;53.250;7.456;2023-10-19T00:33:43;22.20;;;10.38;;
22916;SDS011;11624;53.250;7.456;2023-10-19T00:36:12;25.42;;;11.82;;
22916;SDS011;11624;53.250;7.456;2023-10-19T00:38:41;20.30;;;10.05;;
22916;SDS011;11624;53.250;7.456;2023-10-19T00:41:18;22.45;;;10.90;;
22916;SDS011;11624;53.250;7.456;2023-10-19T00:43:50;28.08;;;10.80;;
22916;SDS011;11624;53.250;7.456;2023-10-19T00:46:26;24.75;;;11.75;;
22916;SDS011;11624;53.250;7.456;2023-10-19T00:49:01;23.48;;;11.23;;
22916;SDS011;11624;53.250;7.456;2023-10-19T00:51:34;23.65;;;11.15;;
22916;SDS011;11624;53.250;7.456;2023-10-19T00:54:18;24.63;;;11.63;;
22916;SDS011;11624;53.250;7.456;2023-10-19T00:56:53;25.98;;;11.93;;
22916;SDS011;11624;53.250;7.456;2023-10-19T00:59:25;24.77;;;12.32;;
22916;SDS011;11624;53.250;7.456;2023-10-19T01:01:57;26.45;;;12.32;;
22916;SDS011;11624;53.250;7.456;2023-10-19T01:04:45;24.50;;;12.35;;
22916;SDS011;11624;53.250;7.456;2023-10-19T01:07:17;25.45;;;12.23;;
22916;SDS011;11624;53.250;7.456;2023-10-19T01:09:49;26.52;;;12.85;;
22916;SDS011;11624;53.250;7.456;2023-10-19T01:12:21;27.50;;;12.07;;
22916;SDS011;11624;53.250;7.456;2023-10-19T01:15:00;26.15;;;12.35;;
22916;SDS011;11624;53.250;7.456;2023-10-19T01:17:33;25.10;;;12.40;;
22916;SDS011;11624;53.250;7.456;2023-10-19T01:20:11;25.48;;;13.20;;
22916;SDS011;11624;53.250;7.456;2023-10-19T01:22:50;26.15;;;12.00;;
22916;SDS011;11624;53.250;7.456;2023-10-19T01:25:39;24.95;;;13.10;;
22916;SDS011;11624;53.250;7.456;2023-10-19T01:28:12;25.67;;;12.43;;
22916;SDS011;11624;53.250;7.456;2023-10-19T01:30:44;27.33;;;12.95;;
22916;SDS011;11624;53.250;7.456;2023-10-19T01:33:18;28.88;;;12.98;;
22916;SDS011;11624;53.250;7.456;2023-10-19T01:35:47;25.25;;;12.52;;
22916;SDS011;11624;53.250;7.456;2023-10-19T01:38:34;29.85;;;13.52;;
22916;SDS011;11624;53.250;7.456;2023-10-19T01:41:03;26.00;;;13.07;;
22916;SDS011;11624;53.250;7.456;2023-10-19T01:43:34;27.30;;;13.38;;
22916;SDS011;11624;53.250;7.456;2023-10-19T01:46:08;26.50;;;13.05;;
22916;SDS011;11624;53.250;7.456;2023-10-19T01:48:39;28.20;;;13.48;;
22916;SDS011;11624;53.250;7.456;2023-10-19T01:51:09;25.95;;;13.68;;
22916;SDS011;11624;53.250;7.456;2023-10-19T01:53:39;27.05;;;13.55;;
22916;SDS011;11624;53.250;7.456;2023-10-19T01:56:12;28.88;;;14.27;;
22916;SDS011;11624;53.250;7.456;2023-10-19T01:58:41;27.55;;;13.93;;
22916;SDS011;11624;53.250;7.456;2023-10-19T02:01:10;28.13;;;14.30;;
22916;SDS011;11624;53.250;7.456;2023-10-19T02:03:46;28.65;;;13.50;;
22916;SDS011;11624;53.250;7.456;2023-10-19T02:06:19;27.55;;;13.43;;
22916;SDS011;11624;53.250;7.456;2023-10-19T02:08:50;24.60;;;12.57;;
22916;SDS011;11624;53.250;7.456;2023-10-19T02:11:23;26.95;;;13.60;;
22916;SDS011;11624;53.250;7.456;2023-10-19T02:13:52;26.38;;;13.43;;
22916;SDS011;11624;53.250;7.456;2023-10-19T02:16:26;28.20;;;13.57;;
22916;SDS011;11624;53.250;7.456;2023-10-19T02:18:56;28.38;;;13.45;;
22916;SDS011;11624;53.250;7.456;2023-10-19T02:21:23;26.88;;;13.20;;
22916;SDS011;11624;53.250;7.456;2023-10-19T02:23:58;27.58;;;13.98;;
22916;SDS011;11624;53.250;7.456;2023-10-19T02:26:26;28.20;;;12.40;;
22916;SDS011;11624;53.250;7.456;2023-10-19T02:28:57;28.13;;;13.80;;
22916;SDS011;11624;53.250;7.456;2023-10-19T02:31:25;25.95;;;12.10;;
22916;SDS011;11624;53.250;7.456;2023-10-19T02:33:54;25.85;;;13.30;;
22916;SDS011;11624;53.250;7.456;2023-10-19T02:36:26;26.45;;;13.10;;
22916;SDS011;11624;53.250;7.456;2023-10-19T02:38:59;28.13;;;13.07;;
22916;SDS011;11624;53.250;7.456;2023-10-19T02:41:35;26.77;;;12.90;;
22916;SDS011;11624;53.250;7.456;2023-10-19T02:44:04;30.10;;;13.02;;
22916;SDS011;11624;53.250;7.456;2023-10-19T02:46:36;24.40;;;11.73;;
22916;SDS011;11624;53.250;7.456;2023-10-19T02:49:09;24.33;;;10.50;;
22916;SDS011;11624;53.250;7.456;2023-10-19T02:51:39;23.52;;;9.50;;
22916;SDS011;11624;53.250;7.456;2023-10-19T02:54:09;4.60;;;1.25;;
22916;SDS011;11624;53.250;7.456;2023-10-19T02:56:44;1.02;;;0.93;;
22916;SDS011;11624;53.250;7.456;2023-10-19T02:59:16;0.90;;;0.70;;
22916;SDS011;11624;53.250;7.456;2023-10-19T03:01:48;2.20;;;1.02;;
22916;SDS011;11624;53.250;7.456;2023-10-19T03:04:18;1.80;;;1.23;;
22916;SDS011;11624;53.250;7.456;2023-10-19T03:06:47;1.90;;;1.13;;
22916;SDS011;11624;53.250;7.456;2023-10-19T03:09:17;0.45;;;0.45;;
22916;SDS011;11624;53.250;7.456;2023-10-19T03:11:49;4.38;;;1.52;;
22916;SDS011;11624;53.250;7.456;2023-10-19T03:14:19;2.40;;;0.95;;
22916;SDS011;11624;53.250;7.456;2023-10-19T03:16:47;0.45;;;0.38;;
22916;SDS011;11624;53.250;7.456;2023-10-19T03:19:16;1.08;;;0.70;;
22916;SDS011;11624;53.250;7.456;2023-10-19T03:21:43;0.70;;;0.38;;
22916;SDS011;11624;53.250;7.456;2023-10-19T03:24:16;0.43;;;0.20;;
22916;SDS011;11624;53.250;7.456;2023-10-19T03:26:50;3.40;;;1.23;;
22916;SDS011;11624;53.250;7.456;2023-10-19T03:29:21;1.45;;;1.17;;
22916;SDS011;11624;53.250;7.456;2023-10-19T03:31:58;1.98;;;0.98;;
22916;SDS011;11624;53.250;7.456;2023-10-19T03:34:26;1.95;;;0.82;;
22916;SDS011;11624;53.250;7.456;2023-10-19T03:37:01;3.50;;;0.85;;
22916;SDS011;11624;53.250;7.456;2023-10-19T03:39:34;2.22;;;1.33;;
22916;SDS011;11624;53.250;7.456;2023-10-19T03:42:05;1.00;;;0.75;;
22916;SDS011;11624;53.250;7.456;2023-10-19T03:44:36;1.27;;;0.55;;
22916;SDS011;11624;53.250;7.456;2023-10-19T03:47:12;0.80;;;0.30;;
22916;SDS011;11624;53.250;7.456;2023-10-19T03:49:45;2.45;;;1.17;;
22916;SDS011;11624;53.250;7.456;2023-10-19T03:52:14;0.88;;;0.85;;
22916;SDS011;11624;53.250;7.456;2023-10-19T03:54:50;0.40;;;0.40;;
22916;SDS011;11624;53.250;7.456;2023-10-19T03:57:18;0.63;;;0.30;;
22916;SDS011;11624;53.250;7.456;2023-10-19T03:59:50;0.88;;;0.32;;
22916;SDS011;11624;53.250;7.456;2023-10-19T04:02:23;1.45;;;0.55;;
22916;SDS011;11624;53.250;7.456;2023-10-19T04:04:53;1.00;;;0.85;;
22916;SDS011;11624;53.250;7.456;2023-10-19T04:07:22;1.15;;;0.80;;
22916;SDS011;11624;53.250;7.456;2023-10-19T04:09:54;1.27;;;1.08;;
22916;SDS011;11624;53.250;7.456;2023-10-19T04:12:37;1.80;;;0.82;;
22916;SDS011;11624;53.250;7.456;2023-10-19T04:15:09;1.08;;;0.82;;
22916;SDS011;11624;53.250;7.456;2023-10-19T04:17:42;2.50;;;1.23;;
22916;SDS011;11624;53.250;7.456;2023-10-19T04:20:11;1.30;;;0.85;;
22916;SDS011;11624;53.250;7.456;2023-10-19T04:23:09;0.65;;;0.63;;
22916;SDS011;11624;53.250;7.456;2023-10-19T04:25:44;1.65;;;0.65;;
22916;SDS011;11624;53.250;7.456;2023-10-19T04:28:13;2.58;;;0.95;;
22916;SDS011;11624;53.250;7.456;2023-10-19T04:30:42;4.43;;;1.52;;
22916;SDS011;11624;53.250;7.456;2023-10-19T04:33:11;1.27;;;0.47;;
22916;SDS011;11624;53.250;7.456;2023-10-19T04:35:43;2.70;;;0.38;;
22916;SDS011;11624;53.250;7.456;2023-10-19T04:38:12;1.60;;;1.08;;
22916;SDS011;11624;53.250;7.456;2023-10-19T04:40:43;1.45;;;1.02;;
22916;SDS011;11624;53.250;7.456;2023-10-19T04:43:12;0.45;;;0.45;;
22916;SDS011;11624;53.250;7.456;2023-10-19T04:45:42;2.42;;;0.63;;
22916;SDS011;11624;53.250;7.456;2023-10-19T04:48:11;1.55;;;1.02;;
22916;SDS011;11624;53.250;7.456;2023-10-19T04:50:39;1.85;;;0.40;;
22916;SDS011;11624;53.250;7.456;2023-10-19T04:53:08;0.70;;;0.43;;
22916;SDS011;11624;53.250;7.456;2023-10-19T04:55:36;2.70;;;1.08;;
22916;SDS011;11624;53.250;7.456;2023-10-19T04:58:06;0.10;;;0.10;;
22916;SDS011;11624;53.250;7.456;2023-10-19T05:00:37;0.65;;;0.63;;
22916;SDS011;11624;53.250;7.456;2023-10-19T05:03:05;2.67;;;0.73;;
22916;SDS011;11624;53.250;7.456;2023-10-19T05:05:33;1.65;;;0.82;;
22916;SDS011;11624;53.250;7.456;2023-10-19T05:08:02;0.43;;;0.43;;
22916;SDS011;11624;53.250;7.456;2023-10-19T05:10:31;1.65;;;0.88;;
22916;SDS011;11624;53.250;7.456;2023-10-19T05:13:00;0.30;;;0.30;;
22916;SDS011;11624;53.250;7.456;2023-10-19T05:15:29;1.50;;;0.60;;
22916;SDS011;11624;53.250;7.456;2023-10-19T05:18:00;0.32;;;0.32;;
22916;SDS011;11624;53.250;7.456;2023-10-19T05:20:31;0.25;;;0.25;;
22916;SDS011;11624;53.250;7.456;2023-10-19T05:23:00;1.52;;;0.68;;
22916;SDS011;11624;53.250;7.456;2023-10-19T05:25:28;1.95;;;1.15;;
22916;SDS011;11624;53.250;7.456;2023-10-19T05:27:57;0.63;;;0.47;;
22916;SDS011;11624;53.250;7.456;2023-10-19T05:30:27;1.25;;;0.32;;
22916;SDS011;11624;53.250;7.456;2023-10-19T05:32:58;1.27;;;0.80;;
22916;SDS011;11624;53.250;7.456;2023-10-19T05:35:28;0.30;;;0.30;;
22916;SDS011;11624;53.250;7.456;2023-10-19T05:37:57;0.30;;;0.20;;
22916;SDS011;11624;53.250;7.456;2023-10-19T05:40:25;2.90;;;0.63;;
22916;SDS011;11624;53.250;7.456;2023-10-19T05:42:56;1.35;;;0.55;;
22916;SDS011;11624;53.250;7.456;2023-10-19T05:45:27;0.65;;;0.65;;
22916;SDS011;11624;53.250;7.456;2023-10-19T05:47:57;0.82;;;0.57;;
22916;SDS011;11624;53.250;7.456;2023-10-19T05:50:26;2.30;;;0.98;;
22916;SDS011;11624;53.250;7.456;2023-10-19T05:52:55;0.60;;;0.60;;
22916;SDS011;11624;53.250;7.456;2023-10-19T05:55:23;0.47;;;0.40;;
22916;SDS011;11624;53.250;7.456;2023-10-19T05:57:52;3.22;;;0.60;;
22916;SDS011;11624;53.250;7.456;2023-10-19T06:00:21;0.40;;;0.30;;
22916;SDS011;11624;53.250;7.456;2023-10-19T06:02:52;0.70;;;0.70;;
22916;SDS011;11624;53.250;7.456;2023-10-19T06:05:22;0.57;;;0.40;;
22916;SDS011;11624;53.250;7.456;2023-10-19T06:07:51;0.20;;;0.20;;
22916;SDS011;11624;53.250;7.456;2023-10-19T06:10:20;0.50;;;0.50;;
22916;SDS011;11624;53.250;7.456;2023-10-19T06:12:49;0.60;;;0.30;;
22916;SDS011;11624;53.250;7.456;2023-10-19T06:15:19;0.45;;;0.45;;
22916;SDS011;11624;53.250;7.456;2023-10-19T06:17:50;2.20;;;0.88;;
22916;SDS011;11624;53.250;7.456;2023-10-19T06:20:19;0.77;;;0.65;;
22916;SDS011;11624;53.250;7.456;2023-10-19T06:22:53;1.50;;;0.90;;
22916;SDS011;11624;53.250;7.456;2023-10-19T06:25:24;0.50;;;0.50;;
22916;SDS011;11624;53.250;7.456;2023-10-19T06:27:52;2.45;;;0.68;;
22916;SDS011;11624;53.250;7.456;2023-10-19T06:30:24;0.20;;;0.20;;
22916;SDS011;11624;53.250;7.456;2023-10-19T06:32:53;1.55;;;0.93;;
22916;SDS011;11624;53.250;7.456;2023-10-19T06:35:25;0.38;;;0.32;;
22916;SDS011;11624;53.250;7.456;2023-10-19T06:37:53;0.43;;;0.35;;
22916;SDS011;11624;53.250;7.456;2023-10-19T06:40:23;1.67;;;0.65;;
22916;SDS011;11624;53.250;7.456;2023-10-19T06:42:54;0.28;;;0.25;;
22916;SDS011;11624;53.250;7.456;2023-10-19T06:45:23;0.25;;;0.25;;
22916;SDS011;11624;53.250;7.456;2023-10-19T06:47:52;1.65;;;0.85;;
22916;SDS011;11624;53.250;7.456;2023-10-19T06:50:21;0.20;;;0.20;;
22916;SDS011;11624;53.250;7.456;2023-10-19T06:52:52;1.45;;;0.60;;
22916;SDS011;11624;53.250;7.456;2023-10-19T06:55:21;0.80;;;0.50;;
22916;SDS011;11624;53.250;7.456;2023-10-19T06:57:50;1.45;;;0.65;;
22916;SDS011;11624;53.250;7.456;2023-10-19T07:00:20;0.20;;;0.20;;
22916;SDS011;11624;53.250;7.456;2023-10-19T07:02:49;0.50;;;0.43;;
22916;SDS011;11624;53.250;7.456;2023-10-19T07:05:19;0.43;;;0.43;;
22916;SDS011;11624;53.250;7.456;2023-10-19T07:07:49;2.15;;;0.98;;
22916;SDS011;11624;53.250;7.456;2023-10-19T07:10:21;0.73;;;0.35;;
22916;SDS011;11624;53.250;7.456;2023-10-19T07:12:51;0.22;;;0.15;;
22916;SDS011;11624;53.250;7.456;2023-10-19T07:15:21;0.95;;;0.50;;
22916;SDS011;11624;53.250;7.456;2023-10-19T07:17:52;0.65;;;0.50;;
22916;SDS011;11624;53.250;7.456;2023-10-19T07:20:21;0.50;;;0.32;;
22916;SDS011;11624;53.250;7.456;2023-10-19T07:22:56;0.50;;;0.30;;
22916;SDS011;11624;53.250;7.456;2023-10-19T07:25:27;0.47;;;0.47;;
22916;SDS011;11624;53.250;7.456;2023-10-19T07:27:56;1.35;;;0.57;;
22916;SDS011;11624;53.250;7.456;2023-10-19T07:30:26;0.90;;;0.30;;
22916;SDS011;11624;53.250;7.456;2023-10-19T07:32:55;1.23;;;0.43;;
22916;SDS011;11624;53.250;7.456;2023-10-19T07:35:26;1.33;;;0.40;;
22916;SDS011;11624;53.250;7.456;2023-10-19T07:38:02;0.20;;;0.20;;
22916;SDS011;11624;53.250;7.456;2023-10-19T07:40:32;0.17;;;0.15;;
22916;SDS011;11624;53.250;7.456;2023-10-19T07:43:01;0.13;;;0.13;;
22916;SDS011;11624;53.250;7.456;2023-10-19T07:45:30;0.85;;;0.47;;
22916;SDS011;11624;53.250;7.456;2023-10-19T07:48:01;0.30;;;0.30;;
22916;SDS011;11624;53.250;7.456;2023-10-19T07:50:34;0.38;;;0.38;;
22916;SDS011;11624;53.250;7.456;2023-10-19T07:53:04;0.22;;;0.20;;
22916;SDS011;11624;53.250;7.456;2023-10-19T07:55:32;0.60;;;0.35;;
22916;SDS011;11624;53.250;7.456;2023-10-19T07:58:01;0.40;;;0.28;;
22916;SDS011;11624;53.250;7.456;2023-10-19T08:00:30;0.05;;;0.05;;
22916;SDS011;11624;53.250;7.456;2023-10-19T08:03:00;1.48;;;0.63;;
22916;SDS011;11624;53.250;7.456;2023-10-19T08:05:29;0.93;;;0.50;;
22916;SDS011;11624;53.250;7.456;2023-10-19T08:07:58;0.10;;;0.10;;
22916;SDS011;11624;53.250;7.456;2023-10-19T08:10:29;0.40;;;0.40;;
22916;SDS011;11624;53.250;7.456;2023-10-19T08:12:57;0.10;;;0.10;;
22916;SDS011;11624;53.250;7.456;2023-10-19T08:15:26;0.35;;;0.35;;
22916;SDS011;11624;53.250;7.456;2023-10-19T08:17:57;0.22;;;0.22;;
22916;SDS011;11624;53.250;7.456;2023-10-19T08:20:25;0.70;;;0.68;;
22916;SDS011;11624;53.250;7.456;2023-10-19T08:22:59;0.00;;;0.00;;
22916;SDS011;11624;53.250;7.456;2023-10-19T08:25:31;0.95;;;0.63;;
22916;SDS011;11624;53.250;7.456;2023-10-19T08:28:21;0.20;;;0.20;;
22916;SDS011;11624;53.250;7.456;2023-10-19T08:31:03;0.40;;;0.40;;
22916;SDS011;11624;53.250;7.456;2023-10-19T08:33:41;0.00;;;0.00;;
22916;SDS011;11624;53.250;7.456;2023-10-19T08:36:16;0.20;;;0.20;;
22916;SDS011;11624;53.250;7.456;2023-10-19T08:38:46;1.17;;;0.65;;
22916;SDS011;11624;53.250;7.456;2023-10-19T08:41:16;0.40;;;0.30;;
22916;SDS011;11624;53.250;7.456;2023-10-19T08:43:45;0.57;;;0.43;;
22916;SDS011;11624;53.250;7.456;2023-10-19T08:46:16;0.25;;;0.25;;
22916;SDS011;11624;53.250;7.456;2023-10-19T08:48:45;0.65;;;0.40;;
22916;SDS011;11624;53.250;7.456;2023-10-19T08:51:13;0.40;;;0.17;;
22916;SDS011;11624;53.250;7.456;2023-10-19T08:53:43;0.10;;;0.10;;
22916;SDS011;11624;53.250;7.456;2023-10-19T08:56:13;0.20;;;0.20;;
22916;SDS011;11624;53.250;7.456;2023-10-19T08:58:44;0.10;;;0.10;;
22916;SDS011;11624;53.250;7.456;2023-10-19T09:01:13;0.13;;;0.13;;
22916;SDS011;11624;53.250;7.456;2023-10-19T09:03:42;0.10;;;0.10;;
22916;SDS011;11624;53.250;7.456;2023-10-19T09:06:11;0.30;;;0.30;;
22916;SDS011;11624;53.250;7.456;2023-10-19T09:08:41;0.20;;;0.20;;
22916;SDS011;11624;53.250;7.456;2023-10-19T09:11:13;0.10;;;0.10;;
22916;SDS011;11624;53.250;7.456;2023-10-19T09:13:47;0.22;;;0.22;;
22916;SDS011;11624;53.250;7.456;2023-10-19T09:16:17;0.10;;;0.10;;
22916;SDS011;11624;53.250;7.456;2023-10-19T09:18:46;0.08;;;0.08;;
22916;SDS011;11624;53.250;7.456;2023-10-19T09:21:16;0.45;;;0.30;;
22916;SDS011;11624;53.250;7.456;2023-10-19T09:23:55;0.68;;;0.68;;
22916;SDS011;11624;53.250;7.456;2023-10-19T09:26:24;0.28;;;0.20;;
22916;SDS011;11624;53.250;7.456;2023-10-19T09:28:54;0.28;;;0.28;;
22916;SDS011;11624;53.250;7.456;2023-10-19T09:31:23;0.10;;;0.10;;
22916;SDS011;11624;53.250;7.456;2023-10-19T09:33:52;0.10;;;0.10;;
22916;SDS011;11624;53.250;7.456;2023-10-19T09:36:21;1.00;;;0.57;;
22916;SDS011;11624;53.250;7.456;2023-10-19T09:38:53;0.13;;;0.13;;
22916;SDS011;11624;53.250;7.456;2023-10-19T09:41:24;0.35;;;0.35;;
22916;SDS011;11624;53.250;7.456;2023-10-19T09:43:57;0.38;;;0.35;;
22916;SDS011;11624;53.250;7.456;2023-10-19T09:46:32;0.20;;;0.20;;
22916;SDS011;11624;53.250;7.456;2023-10-19T09:49:03;0.13;;;0.13;;
22916;SDS011;11624;53.250;7.456;2023-10-19T09:51:33;0.63;;;0.35;;
22916;SDS011;11624;53.250;7.456;2023-10-19T09:54:05;0.35;;;0.35;;
22916;SDS011;11624;53.250;7.456;2023-10-19T09:56:42;0.20;;;0.20;;
22916;SDS011;11624;53.250;7.456;2023-10-19T09:59:23;0.30;;;0.30;;
22916;SDS011;11624;53.250;7.456;2023-10-19T10:02:04;1.02;;;0.63;;
22916;SDS011;11624;53.250;7.456;2023-10-19T10:04:34;0.93;;;0.47;;
22916;SDS011;11624;53.250;7.456;2023-10-19T10:07:04;0.13;;;0.13;;
22916;SDS011;11624;53.250;7.456;2023-10-19T10:09:34;0.57;;;0.32;;
22916;SDS011;11624;53.250;7.456;2023-10-19T10:12:16;0.32;;;0.25;;
22916;SDS011;11624;53.250;7.456;2023-10-19T10:14:53;0.10;;;0.10;;
22916;SDS011;11624;53.250;7.456;2023-10-19T10:17:24;0.10;;;0.10;;
22916;SDS011;11624;53.250;7.456;2023-10-19T10:19:55;0.17;;;0.17;;
22916;SDS011;11624;53.250;7.456;2023-10-19T10:22:27;0.10;;;0.10;;
22916;SDS011;11624;53.250;7.456;2023-10-19T10:24:55;0.30;;;0.30;;
22916;SDS011;11624;53.250;7.456;2023-10-19T10:27:24;0.20;;;0.20;;
22916;SDS011;11624;53.250;7.456;2023-10-19T10:29:57;0.13;;;0.13;;
22916;SDS011;11624;53.250;7.456;2023-10-19T10:32:44;0.22;;;0.22;;
22916;SDS011;11624;53.250;7.456;2023-10-19T10:38:33;0.20;;;0.20;;
22916;SDS011;11624;53.250;7.456;2023-10-19T10:41:03;0.65;;;0.35;;
22916;SDS011;11624;53.250;7.456;2023-10-19T10:43:52;0.00;;;0.00;;
22916;SDS011;11624;53.250;7.456;2023-10-19T10:46:23;0.10;;;0.10;;
22916;SDS011;11624;53.250;7.456;2023-10-19T10:48:54;0.40;;;0.32;;
22916;SDS011;11624;53.250;7.456;2023-10-19T10:51:23;0.40;;;0.40;;
22916;SDS011;11624;53.250;7.456;2023-10-19T10:53:53;0.22;;;0.22;;
22916;SDS011;11624;53.250;7.456;2023-10-19T10:56:23;0.80;;;0.32;;
22916;SDS011;11624;53.250;7.456;2023-10-19T10:58:52;0.10;;;0.10;;
22916;SDS011;11624;53.250;7.456;2023-10-19T11:01:30;0.08;;;0.08;;
22916;SDS011;11624;53.250;7.456;2023-10-19T11:04:06;0.32;;;0.30;;
22916;SDS011;11624;53.250;7.456;2023-10-19T11:06:45;0.40;;;0.35;;
22916;SDS011;11624;53.250;7.456;2023-10-19T11:09:17;0.25;;;0.20;;
22916;SDS011;11624;53.250;7.456;2023-10-19T11:11:49;0.22;;;0.22;;
22916;SDS011;11624;53.250;7.456;2023-10-19T11:14:19;0.00;;;0.00;;
22916;SDS011;11624;53.250;7.456;2023-10-19T11:16:51;0.80;;;0.45;;
22916;SDS011;11624;53.250;7.456;2023-10-19T11:19:20;0.40;;;0.17;;
22916;SDS011;11624;53.250;7.456;2023-10-19T11:21:53;0.45;;;0.45;;
22916;SDS011;11624;53.250;7.456;2023-10-19T11:24:26;0.30;;;0.30;;
22916;SDS011;11624;53.250;7.456;2023-10-19T11:26:59;0.17;;;0.17;;
22916;SDS011;11624;53.250;7.456;2023-10-19T11:29:27;0.10;;;0.10;;
22916;SDS011;11624;53.250;7.456;2023-10-19T11:32:00;0.25;;;0.20;;
22916;SDS011;11624;53.250;7.456;2023-10-19T11:34:29;0.30;;;0.30;;
22916;SDS011;11624;53.250;7.456;2023-10-19T11:37:02;1.40;;;0.88;;
22916;SDS011;11624;53.250;7.456;2023-10-19T11:39:31;0.20;;;0.20;;
22916;SDS011;11624;53.250;7.456;2023-10-19T11:42:00;0.20;;;0.15;;
22916;SDS011;11624;53.250;7.456;2023-10-19T11:44:28;0.82;;;0.45;;
22916;SDS011;11624;53.250;7.456;2023-10-19T11:46:57;0.20;;;0.20;;
22916;SDS011;11624;53.250;7.456;2023-10-19T11:49:27;1.10;;;0.65;;
22916;SDS011;11624;53.250;7.456;2023-10-19T11:51:55;0.80;;;0.40;;
22916;SDS011;11624;53.250;7.456;2023-10-19T11:54:24;0.80;;;0.63;;
22916;SDS011;11624;53.250;7.456;2023-10-19T11:56:53;0.32;;;0.32;;
22916;SDS011;11624;53.250;7.456;2023-10-19T11:59:21;0.35;;;0.30;;
22916;SDS011;11624;53.250;7.456;2023-10-19T12:01:50;0.20;;;0.20;;
22916;SDS011;11624;53.250;7.456;2023-10-19T12:04:18;0.25;;;0.20;;
22916;SDS011;11624;53.250;7.456;2023-10-19T12:06:48;0.77;;;0.40;;
22916;SDS011;11624;53.250;7.456;2023-10-19T12:09:17;0.00;;;0.00;;
22916;SDS011;11624;53.250;7.456;2023-10-19T12:11:50;0.95;;;0.30;;
22916;SDS011;11624;53.250;7.456;2023-10-19T12:14:21;0.32;;;0.32;;
22916;SDS011;11624;53.250;7.456;2023-10-19T12:16:50;0.13;;;0.13;;
22916;SDS011;11624;53.250;7.456;2023-10-19T12:19:18;0.00;;;0.00;;
22916;SDS011;11624;53.250;7.456;2023-10-19T12:21:46;0.55;;;0.38;;
22916;SDS011;11624;53.250;7.456;2023-10-19T12:24:17;0.08;;;0.08;;
22916;SDS011;11624;53.250;7.456;2023-10-19T12:26:47;0.22;;;0.22;;
22916;SDS011;11624;53.250;7.456;2023-10-19T12:29:15;0.40;;;0.30;;
22916;SDS011;11624;53.250;7.456;2023-10-19T12:31:47;0.03;;;0.03;;
22916;SDS011;11624;53.250;7.456;2023-10-19T12:34:16;0.47;;;0.20;;
22916;SDS011;11624;53.250;7.456;2023-10-19T12:36:45;0.80;;;0.32;;
22916;SDS011;11624;53.250;7.456;2023-10-19T12:39:19;0.22;;;0.22;;
22916;SDS011;11624;53.250;7.456;2023-10-19T12:42:01;0.70;;;0.55;;
22916;SDS011;11624;53.250;7.456;2023-10-19T12:44:31;0.20;;;0.20;;
22916;SDS011;11624;53.250;7.456;2023-10-19T12:47:06;0.90;;;0.50;;
22916;SDS011;11624;53.250;7.456;2023-10-19T12:49:37;0.10;;;0.10;;
22916;SDS011;11624;53.250;7.456;2023-10-19T12:52:07;0.10;;;0.10;;
22916;SDS011;11624;53.250;7.456;2023-10-19T12:54:37;0.35;;;0.20;;
22916;SDS011;11624;53.250;7.456;2023-10-19T12:57:06;0.73;;;0.35;;
22916;SDS011;11624;53.250;7.456;2023-10-19T12:59:36;0.00;;;0.00;;
22916;SDS011;11624;53.250;7.456;2023-10-19T13:02:05;0.95;;;0.43;;
22916;SDS011;11624;53.250;7.456;2023-10-19T13:04:35;0.10;;;0.10;;
22916;SDS011;11624;53.250;7.456;2023-10-19T13:07:04;0.10;;;0.10;;
22916;SDS011;11624;53.250;7.456;2023-10-19T13:09:35;0.10;;;0.10;;
22916;SDS011;11624;53.250;7.456;2023-10-19T13:12:04;0.00;;;0.00;;
22916;SDS011;11624;53.250;7.456;2023-10-19T13:14:34;0.00;;;0.00;;
22916;SDS011;11624;53.250;7.456;2023-10-19T13:17:03;0.30;;;0.28;;
22916;SDS011;11624;53.250;7.456;2023-10-19T13:19:31;0.20;;;0.20;;
22916;SDS011;11624;53.250;7.456;2023-10-19T13:22:03;0.10;;;0.10;;
22916;SDS011;11624;53.250;7.456;2023-10-19T13:24:35;0.17;;;0.17;;
22916;SDS011;11624;53.250;7.456;2023-10-19T13:27:08;0.20;;;0.20;;
22916;SDS011;11624;53.250;7.456;2023-10-19T13:29:37;1.27;;;0.80;;
22916;SDS011;11624;53.250;7.456;2023-10-19T13:32:08;1.00;;;0.60;;
22916;SDS011;11624;53.250;7.456;2023-10-19T13:34:37;2.03;;;0.55;;
22916;SDS011;11624;53.250;7.456;2023-10-19T13:37:07;0.65;;;0.20;;
22916;SDS011;11624;53.250;7.456;2023-10-19T13:39:36;0.03;;;0.03;;
22916;SDS011;11624;53.250;7.456;2023-10-19T13:42:06;0.22;;;0.22;;
22916;SDS011;11624;53.250;7.456;2023-10-19T13:44:35;2.05;;;0.85;;
22916;SDS011;11624;53.250;7.456;2023-10-19T13:47:05;0.95;;;0.52;;
22916;SDS011;11624;53.250;7.456;2023-10-19T13:49:35;0.10;;;0.10;;
22916;SDS011;11624;53.250;7.456;2023-10-19T13:52:04;0.08;;;0.08;;
22916;SDS011;11624;53.250;7.456;2023-10-19T13:54:32;0.25;;;0.25;;
22916;SDS011;11624;53.250;7.456;2023-10-19T13:57:02;1.45;;;0.40;;
22916;SDS011;11624;53.250;7.456;2023-10-19T13:59:30;0.30;;;0.30;;
22916;SDS011;11624;53.250;7.456;2023-10-19T14:02:00;0.08;;;0.08;;
22916;SDS011;11624;53.250;7.456;2023-10-19T14:04:29;0.10;;;0.10;;
22916;SDS011;11624;53.250;7.456;2023-10-19T14:06:58;1.40;;;0.63;;
22916;SDS011;11624;53.250;7.456;2023-10-19T14:09:26;0.03;;;0.03;;
22916;SDS011;11624;53.250;7.456;2023-10-19T14:11:55;0.13;;;0.13;;
22916;SDS011;11624;53.250;7.456;2023-10-19T14:14:24;1.13;;;0.70;;
22916;SDS011;11624;53.250;7.456;2023-10-19T14:16:53;0.28;;;0.20;;
22916;SDS011;11624;53.250;7.456;2023-10-19T14:19:22;0.57;;;0.57;;
22916;SDS011;11624;53.250;7.456;2023-10-19T14:21:50;1.80;;;1.10;;
22916;SDS011;11624;53.250;7.456;2023-10-19T14:24:19;0.57;;;0.40;;
22916;SDS011;11624;53.250;7.456;2023-10-19T14:26:47;2.33;;;1.20;;
22916;SDS011;11624;53.250;7.456;2023-10-19T14:29:16;1.08;;;0.75;;
22916;SDS011;11624;53.250;7.456;2023-10-19T14:31:45;0.88;;;0.57;;
22916;SDS011;11624;53.250;7.456;2023-10-19T14:34:14;0.35;;;0.35;;
22916;SDS011;11624;53.250;7.456;2023-10-19T14:36:42;1.13;;;0.52;;
22916;SDS011;11624;53.250;7.456;2023-10-19T14:39:11;1.02;;;0.82;;
22916;SDS011;11624;53.250;7.456;2023-10-19T14:41:42;0.50;;;0.47;;
22916;SDS011;11624;53.250;7.456;2023-10-19T14:44:10;0.50;;;0.32;;
22916;SDS011;11624;53.250;7.456;2023-10-19T14:46:42;0.75;;;0.32;;
22916;SDS011;11624;53.250;7.456;2023-10-19T14:49:15;1.63;;;1.23;;
22916;SDS011;11624;53.250;7.456;2023-10-19T14:51:44;0.75;;;0.60;;
22916;SDS011;11624;53.250;7.456;2023-10-19T14:54:13;1.10;;;0.55;;
22916;SDS011;11624;53.250;7.456;2023-10-19T14:56:42;0.98;;;0.75;;
22916;SDS011;11624;53.250;7.456;2023-10-19T14:59:11;0.38;;;0.38;;
22916;SDS011;11624;53.250;7.456;2023-10-19T15:01:40;0.80;;;0.55;;
22916;SDS011;11624;53.250;7.456;2023-10-19T15:04:08;1.63;;;0.45;;
22916;SDS011;11624;53.250;7.456;2023-10-19T15:06:38;1.10;;;0.73;;
22916;SDS011;11624;53.250;7.456;2023-10-19T15:09:06;1.58;;;0.82;;